Harrold, Texas
Current Conditions -  °F | °C
As of 12:56 AM on Saturday 25 Oct 2014 (Local Time) from KF05 Reporting Station
Clear Clear  
Wind Chill: 64°   Ceiling: Unl
Heat Index: 64°   Visibility: 10mi
Dew Point: 55°   Wind: 7mph
Humidity: 73%   Direction: 220°SW
Pressure: 30.07"   Gusts: NA
Location:  34.08°N, 99.03°W
Report Text: KF05 250556Z AUTO 22006KT 10SM CLR 18/13 A3007 RMK AO2
Loading
Personal Weather Stations






























Interactive Weather Map
Tropical Storm Tracking
New forecast layout! Learn more

10-Day Weather Forecast

Advertisements
Track Severe Weather on mobile